Azucena, Louisiana
Current Conditions -  °F | °C
As of 4:55 PM on Thursday 20 Nov 2014 (Local Time) from KHEZ Reporting Station
Overcast Overcast  
Wind Chill: 18°   Ceiling: 8000
Heat Index: 18°   Visibility: 10mi
Dew Point:   Wind: 3mph
Humidity: 56%   Direction: 150°SSE
Pressure: 30.17"   Gusts: NA
Location:  31.835°N, 91.3655°W
Report Text: KHEZ 202255Z AUTO 15003KT 10SM OVC080 18/09 A3017 RMK AO1
Loading
Personal Weather Stations






























Interactive Weather Map New forecast layout! Learn more

10-Day Weather Forecast

Advertisements
Track Severe Weather on mobile